Impacts TAF Board INFO
FOR SITUATIONAL AWARENESS. NOT TO BE USED FOR FLIGHT PLANNING PURPOSES.
IDs:

KFLL - Ft Lauderdale-Hollyw, FL, US

Issued at 2320 UTC 16 Dec 2017
Updated at 0012 UTC 17 Dec 2017
Potential Impact None Slight Moderate High
Time2353Z 17/01Z 17/02Z 17/03Z 17/04Z 17/05Z 17/06Z 17/07Z 17/08Z 17/09Z 17/10Z 17/11Z 17/12Z 17/13Z>>
Type OBS PRVL PRVL PRVL PRVL PRVL PRVL PRVL PRVL PRVL PRVL PRVL PRVL PRVL
VIS 10 >6 >6 >6 >6 >6 >6 >6 >6 >6 >6 >6 >6 >6
CIG 250 -- -- -- -- -- -- -- -- -- -- -- -- --
Cover BKN SCT SCT SCT SCT SCT SCT SCT SCT SCT SCT SCT SCT SCT
FltCat VFR VFR VFR VFR VFR VFR VFR VFR VFR VFR VFR VFR VFR VFR
WX -- -- -- -- -- -- -- -- -- -- -- -- -- --
WDir 70 60 80 80 80 80 80 80 80 80 80 80 80 80
WSpd 9 9 7 7 7 7 7 7 7 7 7 7 7 7
WGst -- -- -- -- -- -- -- -- -- -- -- -- -- --

Raw TAF
KFLL 162320Z 1700/1806 06009KT P6SM FEW035 SCT250
  FM170200 08007KT P6SM FEW030 SCT250
  FM171500 11010KT P6SM SCT030 BKN250
  FM180000 10006KT P6SM FEW025 SCT050 SCT250


Raw METAR
KFLL 162353Z 07009KT 10SM SCT037 BKN250 23/17 A3018 RMK AO2 SLP221 T02280172 10256 20222 53014
KFLL 162253Z 07006KT 10SM FEW037 BKN250 22/16 A3017 RMK AO2 SLP216 T02220161
KFLL 162153Z 05005KT 10SM FEW040 OVC250 23/16 A3016 RMK AO2 SLP211 T02330161

METAR Board
Radar Display
Forecast Discussion

FOR SITUATIONAL AWARENESS. NOT TO BE USED FOR FLIGHT PLANNING PURPOSES.